Time;durP1;ratioP1;P1;durP2;ratioP2;P2;SDS_P1;SDS_P2;PMS_P1;PMS_P2;Temp;Humidity;BMP_temperature;BMP_pressure;BME280_temperature;BME280_humidity;BME280_pressure;Samples;Min_cycle;Max_cycle;Signal;HPM_P1;HPM_P2
2021/05/17 00:02:12;;;;;;;0.52;0.52;;;10.30;99.90;;;;;;5082311;28;20214;-82
2021/05/17 00:04:41;;;;;;;0.70;0.67;;;10.30;99.90;;;;;;5082547;28;20230;-83
2021/05/17 00:07:09;;;;;;;1.40;0.90;;;10.20;99.90;;;;;;5082571;28;21045;-83
2021/05/17 00:09:36;;;;;;;0.80;0.80;;;10.30;99.90;;;;;;5082257;28;20497;-83
2021/05/17 00:12:04;;;;;;;0.70;0.70;;;10.30;99.90;;;;;;5082887;28;20456;-82
2021/05/17 00:14:31;;;;;;;0.70;0.70;;;10.30;99.90;;;;;;5082064;28;20976;-82
2021/05/17 00:16:58;;;;;;;2.33;0.83;;;10.30;99.90;;;;;;5082231;28;20490;-82
2021/05/17 00:19:25;;;;;;;0.82;0.70;;;10.20;99.90;;;;;;5083770;28;20461;-79
2021/05/17 00:21:52;;;;;;;0.60;0.60;;;10.20;99.90;;;;;;5092622;28;20220;-79
2021/05/17 00:24:19;;;;;;;0.85;0.50;;;10.20;99.90;;;;;;5091954;28;20468;-80
2021/05/17 00:26:46;;;;;;;0.60;0.60;;;10.20;99.90;;;;;;5092323;28;20210;-79
2021/05/17 00:29:14;;;;;;;0.93;0.93;;;10.20;99.90;;;;;;5084797;28;20214;-83
2021/05/17 00:31:43;;;;;;;0.82;0.80;;;10.20;99.90;;;;;;5081996;28;20213;-83
2021/05/17 00:34:10;;;;;;;0.98;0.98;;;10.20;99.90;;;;;;5081787;28;20226;-82
2021/05/17 00:36:38;;;;;;;1.00;0.80;;;10.20;99.90;;;;;;5081065;28;20272;-82
2021/05/17 00:39:08;;;;;;;1.20;0.70;;;10.10;99.90;;;;;;5082213;28;20210;-82
2021/05/17 00:41:34;;;;;;;1.98;1.40;;;10.10;99.90;;;;;;5082291;28;20251;-82
2021/05/17 00:44:04;;;;;;;0.90;0.90;;;10.20;99.90;;;;;;5081612;28;20229;-83
2021/05/17 00:46:32;;;;;;;0.90;0.90;;;10.20;99.90;;;;;;5082240;28;20224;-82
2021/05/17 00:49:00;;;;;;;0.93;0.70;;;10.10;99.90;;;;;;5081943;28;20207;-83
2021/05/17 00:51:26;;;;;;;1.10;1.00;;;10.20;99.90;;;;;;5081644;28;20726;-82
2021/05/17 00:53:53;;;;;;;1.40;0.93;;;10.20;99.90;;;;;;5081894;28;20229;-83
2021/05/17 00:56:20;;;;;;;0.77;0.77;;;10.20;99.90;;;;;;5081465;28;20217;-80
2021/05/17 00:58:48;;;;;;;1.40;1.30;;;10.20;99.90;;;;;;5080864;28;20234;-82
2021/05/17 01:01:18;;;;;;;1.15;1.15;;;10.30;99.90;;;;;;5081652;28;20491;-83
2021/05/17 01:03:47;;;;;;;0.70;0.70;;;10.20;99.90;;;;;;5081106;28;20313;-83
2021/05/17 01:06:16;;;;;;;0.60;0.50;;;10.30;99.90;;;;;;5081281;28;20218;-82
2021/05/17 01:08:51;;;;;;;0.80;0.80;;;10.40;99.90;;;;;;5081653;28;20269;-83
2021/05/17 01:11:19;;;;;;;1.33;1.13;;;10.30;99.90;;;;;;5081738;28;20583;-83
2021/05/17 01:13:48;;;;;;;0.70;0.60;;;10.20;99.90;;;;;;5080869;28;20695;-82
2021/05/17 01:16:15;;;;;;;1.30;1.20;;;10.20;99.90;;;;;;5080981;28;20198;-82
2021/05/17 01:18:41;;;;;;;1.08;1.02;;;10.20;99.90;;;;;;5080680;28;20449;-83
2021/05/17 01:21:09;;;;;;;3.70;0.80;;;10.10;99.90;;;;;;5080958;28;20671;-82
2021/05/17 01:23:47;;;;;;;0.80;0.80;;;10.20;99.90;;;;;;5080924;28;20642;-82
2021/05/17 01:26:15;;;;;;;1.70;0.80;;;10.10;99.90;;;;;;5080367;28;20225;-83
2021/05/17 01:28:43;;;;;;;1.15;0.77;;;10.10;99.90;;;;;;5080848;28;20683;-82
2021/05/17 01:31:11;;;;;;;1.13;0.93;;;10.10;99.90;;;;;;5081374;28;20618;-83
2021/05/17 01:33:39;;;;;;;1.15;0.80;;;10.10;99.90;;;;;;5080549;28;20226;-83
2021/05/17 01:36:07;;;;;;;1.20;1.03;;;10.10;99.90;;;;;;5080952;28;20659;-83
2021/05/17 01:38:36;;;;;;;2.90;1.05;;;10.10;99.90;;;;;;5080590;28;20447;-83
2021/05/17 01:41:07;;;;;;;1.63;1.40;;;10.10;99.90;;;;;;5080380;28;20204;-81
2021/05/17 01:43:37;;;;;;;0.60;0.60;;;10.10;99.90;;;;;;5080652;28;20221;-82
2021/05/17 01:46:05;;;;;;;1.52;1.10;;;10.00;99.90;;;;;;5081268;28;20679;-83
2021/05/17 01:48:36;;;;;;;0.65;0.65;;;10.10;99.90;;;;;;5079971;28;20198;-81
2021/05/17 01:51:07;;;;;;;2.03;0.85;;;10.10;99.90;;;;;;5080600;28;20214;-81
2021/05/17 01:53:36;;;;;;;1.20;0.95;;;10.10;99.90;;;;;;5080414;28;20730;-81
2021/05/17 01:56:05;;;;;;;1.13;0.93;;;10.10;99.90;;;;;;5080089;28;20217;-83
2021/05/17 01:58:32;;;;;;;1.05;0.65;;;10.00;99.90;;;;;;5080048;28;20202;-82
2021/05/17 02:00:58;;;;;;;0.60;0.60;;;10.00;99.90;;;;;;5079870;28;20216;-82
2021/05/17 02:03:25;;;;;;;1.73;0.90;;;9.90;99.90;;;;;;5080100;28;20225;-82
2021/05/17 02:05:53;;;;;;;0.80;0.80;;;9.80;99.90;;;;;;5080167;28;20666;-83
2021/05/17 02:08:20;;;;;;;0.77;0.75;;;9.90;99.90;;;;;;5080023;28;20226;-82
2021/05/17 02:10:47;;;;;;;1.05;0.95;;;9.90;99.90;;;;;;5079220;28;20212;-82
2021/05/17 02:13:18;;;;;;;1.63;0.95;;;9.90;99.90;;;;;;5078792;28;20254;-81
2021/05/17 02:15:45;;;;;;;1.25;0.65;;;9.80;99.90;;;;;;5079651;28;20246;-83
2021/05/17 02:18:12;;;;;;;0.52;0.52;;;9.80;99.90;;;;;;5079568;28;20205;-82
2021/05/17 02:20:41;;;;;;;0.65;0.65;;;9.80;99.90;;;;;;5079808;28;20208;-82
2021/05/17 02:23:10;;;;;;;0.70;0.70;;;9.80;99.90;;;;;;5079816;28;20264;-83
2021/05/17 02:25:41;;;;;;;0.65;0.60;;;9.80;99.90;;;;;;5079950;28;20215;-83
2021/05/17 02:28:08;;;;;;;1.20;1.20;;;9.80;99.90;;;;;;5079771;28;20225;-83
2021/05/17 02:30:36;;;;;;;1.20;1.10;;;9.90;99.90;;;;;;5079698;28;20208;-83
2021/05/17 02:33:03;;;;;;;0.80;0.80;;;9.80;99.90;;;;;;5079102;28;20206;-83
2021/05/17 02:35:29;;;;;;;2.67;1.00;;;9.80;99.90;;;;;;5079186;28;20260;-82
2021/05/17 02:37:56;;;;;;;0.98;0.80;;;9.80;99.90;;;;;;5079413;28;20300;-81
2021/05/17 02:40:23;;;;;;;1.13;0.70;;;9.80;99.90;;;;;;5079618;28;20210;-82
2021/05/17 02:42:50;;;;;;;0.70;0.70;;;9.60;99.90;;;;;;5079229;28;20215;-83
2021/05/17 02:45:19;;;;;;;0.70;0.70;;;9.70;99.90;;;;;;5079521;28;20236;-82
2021/05/17 02:47:46;;;;;;;1.23;1.13;;;9.70;99.90;;;;;;5079192;28;20225;-83
2021/05/17 02:50:15;;;;;;;0.85;0.70;;;9.80;99.90;;;;;;5079539;28;20215;-82
2021/05/17 02:52:44;;;;;;;1.70;1.10;;;9.80;99.90;;;;;;5079373;28;20212;-83
2021/05/17 02:55:12;;;;;;;2.08;0.73;;;9.80;99.90;;;;;;5079164;28;20302;-82
2021/05/17 02:57:41;;;;;;;1.48;0.90;;;9.80;99.90;;;;;;5079222;28;20857;-82
2021/05/17 03:00:22;;;;;;;0.60;0.60;;;9.80;99.90;;;;;;5078435;28;20574;-82
2021/05/17 03:03:05;;;;;;;1.17;1.08;;;9.80;99.90;;;;;;5079002;28;20316;-82
2021/05/17 03:05:33;;;;;;;0.63;0.63;;;9.70;99.90;;;;;;5076849;28;20206;-82
2021/05/17 03:08:06;;;;;;;1.98;0.80;;;9.70;99.90;;;;;;5078914;28;20253;-83
2021/05/17 03:10:34;;;;;;;4.25;1.92;;;9.80;99.90;;;;;;5079429;28;20213;-82
2021/05/17 03:13:08;;;;;;;3.63;1.10;;;9.80;99.90;;;;;;5078684;28;20205;-82
2021/05/17 03:15:36;;;;;;;0.70;0.60;;;9.80;99.90;;;;;;5079369;28;20251;-81
2021/05/17 03:18:03;;;;;;;1.67;1.05;;;9.80;99.90;;;;;;5078991;28;20208;-82
2021/05/17 03:20:30;;;;;;;2.15;0.60;;;9.80;99.90;;;;;;5079188;28;20209;-82
2021/05/17 03:22:57;;;;;;;1.55;0.80;;;9.90;99.90;;;;;;5078804;28;20267;-82
2021/05/17 03:25:25;;;;;;;0.70;0.70;;;9.90;99.90;;;;;;5078799;28;20213;-83
2021/05/17 03:27:52;;;;;;;0.60;0.60;;;10.00;99.90;;;;;;5078575;28;20225;-83
2021/05/17 03:30:20;;;;;;;1.20;0.73;;;9.90;99.90;;;;;;5079472;28;20204;-81
2021/05/17 03:32:47;;;;;;;2.10;0.70;;;9.80;99.90;;;;;;5078239;28;20206;-81
2021/05/17 03:35:14;;;;;;;0.77;0.60;;;9.80;99.90;;;;;;5078301;28;20245;-82
2021/05/17 03:37:41;;;;;;;0.70;0.60;;;9.90;99.90;;;;;;5079502;28;20309;-82
2021/05/17 03:40:08;;;;;;;1.75;0.65;;;9.80;99.90;;;;;;5078111;28;20216;-82
2021/05/17 03:42:35;;;;;;;0.60;0.60;;;9.70;99.90;;;;;;5078810;28;20205;-83
2021/05/17 03:45:02;;;;;;;0.50;0.50;;;9.70;99.90;;;;;;5078369;28;20250;-83
2021/05/17 03:47:29;;;;;;;0.57;0.55;;;9.70;99.90;;;;;;5078905;28;20225;-82
2021/05/17 03:49:56;;;;;;;0.70;0.70;;;9.60;99.90;;;;;;5078601;28;20205;-81
2021/05/17 03:52:22;;;;;;;0.60;0.60;;;9.70;99.90;;;;;;5078623;28;20201;-82
2021/05/17 03:54:48;;;;;;;0.85;0.52;;;9.70;99.90;;;;;;5078949;28;20225;-83
2021/05/17 03:57:14;;;;;;;0.70;0.70;;;9.80;99.90;;;;;;5078279;28;20671;-82
2021/05/17 03:59:43;;;;;;;2.03;0.82;;;9.80;99.90;;;;;;5078739;28;20215;-82
2021/05/17 04:02:10;;;;;;;0.85;0.85;;;9.80;99.90;;;;;;5077749;28;20243;-82
2021/05/17 04:04:40;;;;;;;0.65;0.65;;;9.90;99.90;;;;;;5078090;28;20281;-83
2021/05/17 04:07:18;;;;;;;0.60;0.60;;;9.80;99.90;;;;;;5078797;28;20224;-83
2021/05/17 04:15:10;;;;;;;0.82;0.60;;;10.00;99.90;;;;;;5079036;28;20244;-81
2021/05/17 04:17:37;;;;;;;1.05;0.57;;;10.00;99.90;;;;;;5094148;28;20202;-82
2021/05/17 04:20:04;;;;;;;1.00;1.00;;;10.00;99.90;;;;;;5087685;28;20671;-83
2021/05/17 04:22:31;;;;;;;2.25;0.90;;;10.00;99.90;;;;;;5082267;28;20626;-82
2021/05/17 04:24:57;;;;;;;2.15;1.10;;;10.00;99.90;;;;;;5081635;28;20229;-83
2021/05/17 04:27:24;;;;;;;0.60;0.60;;;10.00;99.90;;;;;;5081262;28;20276;-83
2021/05/17 04:29:50;;;;;;;0.88;0.60;;;10.00;99.90;;;;;;5081936;28;20216;-83
2021/05/17 04:32:16;;;;;;;1.20;0.95;;;9.90;99.90;;;;;;5082186;28;20222;-83
2021/05/17 04:34:42;;;;;;;0.70;0.65;;;10.00;99.90;;;;;;5081602;28;20234;-83
2021/05/17 04:37:09;;;;;;;0.80;0.80;;;10.00;99.90;;;;;;5081861;28;20563;-82
2021/05/17 04:39:36;;;;;;;0.82;0.82;;;10.10;99.90;;;;;;5081466;28;20201;-82
2021/05/17 04:42:03;;;;;;;1.00;1.00;;;10.00;99.90;;;;;;5081260;28;20682;-82
2021/05/17 04:44:29;;;;;;;0.77;0.70;;;10.10;99.90;;;;;;5081649;28;20223;-82
2021/05/17 04:46:55;;;;;;;0.98;0.65;;;10.10;99.90;;;;;;5081230;28;20238;-83
2021/05/17 04:49:21;;;;;;;0.70;0.70;;;10.20;99.90;;;;;;5080851;28;20205;-82
2021/05/17 04:51:48;;;;;;;3.65;0.85;;;10.10;99.90;;;;;;5080940;28;20210;-80
2021/05/17 04:54:14;;;;;;;0.60;0.60;;;10.00;99.90;;;;;;5081068;28;20236;-81
2021/05/17 04:56:41;;;;;;;0.98;0.93;;;10.00;99.90;;;;;;5081420;28;20221;-82
2021/05/17 04:59:07;;;;;;;0.70;0.70;;;10.00;99.90;;;;;;5081258;28;20205;-82
2021/05/17 05:01:33;;;;;;;0.60;0.60;;;9.90;99.90;;;;;;5080936;28;20258;-81
2021/05/17 05:04:00;;;;;;;6.10;1.15;;;9.90;99.90;;;;;;5081396;28;20230;-82
2021/05/17 05:06:26;;;;;;;0.85;0.60;;;9.90;99.90;;;;;;5080873;28;20206;-82
2021/05/17 05:08:52;;;;;;;0.63;0.43;;;9.90;99.90;;;;;;5081036;28;20209;-82
2021/05/17 05:11:18;;;;;;;0.50;0.50;;;9.90;99.90;;;;;;5080797;28;20213;-82
2021/05/17 05:13:46;;;;;;;0.63;0.60;;;9.90;99.90;;;;;;5080873;28;20236;-82
2021/05/17 05:16:12;;;;;;;0.50;0.50;;;9.80;99.90;;;;;;5080952;28;20228;-82
2021/05/17 05:18:38;;;;;;;4.30;1.08;;;9.80;99.90;;;;;;5080592;28;20618;-82
2021/05/17 05:21:05;;;;;;;0.50;0.50;;;9.80;99.90;;;;;;5080505;28;20204;-82
2021/05/17 05:23:31;;;;;;;0.52;0.52;;;9.90;99.90;;;;;;5080384;28;20230;-81
2021/05/17 05:28:54;;;;;;;1.17;0.60;;;10.00;99.90;;;;;;5079930;28;20589;-81
2021/05/17 05:31:24;;;;;;;1.52;0.60;;;10.10;99.90;;;;;;5080098;28;20206;-82
2021/05/17 05:33:50;;;;;;;1.15;0.70;;;10.20;99.90;;;;;;5080242;28;20238;-81
2021/05/17 05:36:17;;;;;;;1.35;0.50;;;10.30;99.90;;;;;;5080706;28;20297;-81
2021/05/17 05:38:43;;;;;;;1.85;0.60;;;10.40;99.90;;;;;;5080718;28;20266;-82
2021/05/17 05:41:09;;;;;;;1.25;1.15;;;10.50;99.90;;;;;;5079649;28;20210;-82
2021/05/17 05:43:35;;;;;;;0.50;0.50;;;10.50;99.90;;;;;;5078886;28;20222;-80
2021/05/17 05:46:02;;;;;;;0.50;0.50;;;10.50;99.90;;;;;;5080020;28;20206;-82
2021/05/17 05:48:29;;;;;;;0.70;0.70;;;10.50;99.90;;;;;;5079208;28;20506;-82
2021/05/17 05:50:55;;;;;;;1.23;0.40;;;10.50;99.90;;;;;;5079345;28;20702;-82
2021/05/17 05:53:21;;;;;;;1.70;0.70;;;10.50;99.90;;;;;;5080798;28;20463;-78
2021/05/17 05:55:48;;;;;;;1.60;0.40;;;10.60;99.90;;;;;;5081889;28;20464;-79
2021/05/17 05:58:15;;;;;;;1.83;0.70;;;10.70;99.90;;;;;;5080679;28;20448;-78
2021/05/17 06:00:42;;;;;;;0.37;0.37;;;10.80;99.90;;;;;;5081401;28;20449;-79
2021/05/17 06:03:10;;;;;;;1.13;0.47;;;11.00;99.90;;;;;;5083059;28;20454;-81
2021/05/17 06:05:37;;;;;;;0.50;0.40;;;11.20;99.90;;;;;;5081569;28;20449;-82
2021/05/17 06:08:04;;;;;;;0.70;0.70;;;11.40;99.90;;;;;;5080392;28;20486;-83
2021/05/17 06:10:31;;;;;;;0.40;0.30;;;11.50;99.90;;;;;;5080401;28;20500;-83
2021/05/17 06:12:58;;;;;;;1.47;1.37;;;11.50;99.90;;;;;;5080111;28;20458;-83
2021/05/17 06:15:25;;;;;;;0.50;0.50;;;11.70;99.90;;;;;;5080010;28;20451;-81
2021/05/17 06:17:51;;;;;;;0.40;0.37;;;11.80;99.90;;;;;;5079969;28;20454;-82
2021/05/17 06:20:19;;;;;;;0.50;0.50;;;11.90;99.90;;;;;;5079624;28;20951;-82
2021/05/17 06:22:46;;;;;;;0.80;0.53;;;11.80;99.90;;;;;;5079667;28;20464;-81
2021/05/17 06:25:15;;;;;;;0.40;0.40;;;11.90;99.90;;;;;;5080083;28;20469;-84
2021/05/17 06:27:43;;;;;;;0.63;0.50;;;11.80;99.90;;;;;;5079760;28;20477;-83
2021/05/17 06:30:12;;;;;;;0.90;0.40;;;11.80;99.90;;;;;;5080190;28;20435;-82
2021/05/17 06:32:39;;;;;;;0.63;0.63;;;11.90;99.90;;;;;;5080002;28;20450;-83
2021/05/17 06:35:08;;;;;;;0.60;0.50;;;12.00;99.90;;;;;;5079231;28;20560;-83
2021/05/17 06:37:34;;;;;;;0.97;0.70;;;12.10;99.90;;;;;;5080060;28;20851;-82
2021/05/17 06:40:02;;;;;;;0.53;0.50;;;12.10;99.90;;;;;;5079956;28;20481;-83
2021/05/17 06:42:29;;;;;;;1.23;0.50;;;12.20;99.90;;;;;;5079806;28;20454;-83
2021/05/17 06:44:56;;;;;;;0.40;0.40;;;12.40;99.90;;;;;;5079962;28;20473;-84
2021/05/17 06:47:22;;;;;;;1.37;1.27;;;12.20;99.90;;;;;;5080170;28;20536;-83
2021/05/17 06:49:49;;;;;;;0.87;0.50;;;12.00;99.90;;;;;;5081297;28;20502;-83
2021/05/17 06:52:24;;;;;;;0.40;0.40;;;12.10;99.90;;;;;;5087437;28;20464;-79
2021/05/17 06:54:56;;;;;;;0.67;0.67;;;11.90;99.90;;;;;;5086809;28;20450;-82
2021/05/17 06:57:30;;;;;;;0.77;0.60;;;11.70;99.90;;;;;;5084341;28;20442;-81
2021/05/17 07:00:00;;;;;;;0.57;0.40;;;11.70;99.90;;;;;;5089564;28;20477;-83
2021/05/17 07:02:27;;;;;;;0.60;0.60;;;11.80;99.90;;;;;;5087260;28;20446;-83
2021/05/17 07:04:57;;;;;;;0.53;0.40;;;11.90;99.90;;;;;;5099028;28;20480;-86
2021/05/17 07:07:32;;;;;;;0.70;0.70;;;11.80;99.90;;;;;;5099941;28;20477;-85
2021/05/17 07:12:44;;;;;;;1.33;0.70;;;11.90;99.90;;;;;;5097847;28;21129;-84
2021/05/17 07:15:12;;;;;;;0.90;0.90;;;11.80;99.90;;;;;;5094055;28;20499;-84
2021/05/17 07:17:38;;;;;;;1.53;0.70;;;11.80;99.90;;;;;;5098095;28;20457;-84
2021/05/17 07:20:05;;;;;;;1.70;0.63;;;11.90;99.90;;;;;;5078356;28;20461;-83
2021/05/17 08:33:59;;;;;;;;;;;;;;;;;;;;;
2021/05/17 09:21:21;;;;;;;1.03;0.50;;;14.20;98.10;;;;;;4867939;29;20949;-82
2021/05/17 09:34:29;;;;;;;0.60;0.60;;;14.80;97.60;;;;;;4970538;28;20458;-82
2021/05/17 09:59:43;;;;;;;1.63;0.90;;;14.70;99.90;;;;;;3384989;26;20499;-81
2021/05/17 10:19:43;;;;;;;0.77;0.47;;;15.90;96.40;;;;;;5434932;22;20489;-84
2021/05/17 10:22:56;;;;;;;1.67;0.70;;;16.00;96.60;;;;;;4978232;28;20476;-83
2021/05/17 10:25:35;;;;;;;1.63;0.60;;;16.00;97.50;;;;;;4959288;28;20449;-82
2021/05/17 10:28:08;;;;;;;0.70;0.60;;;16.00;96.80;;;;;;4959064;29;20515;-84
2021/05/17 10:30:35;;;;;;;0.90;0.70;;;16.00;97.60;;;;;;4976596;28;20479;-82
2021/05/17 10:33:02;;;;;;;1.77;1.00;;;15.90;98.50;;;;;;5039406;28;20580;-83
2021/05/17 10:35:31;;;;;;;1.33;0.60;;;15.60;99.90;;;;;;5039671;28;20457;-83
2021/05/17 10:38:17;;;;;;;1.80;0.87;;;15.30;99.90;;;;;;5040042;28;20446;-83
2021/05/17 10:40:47;;;;;;;0.70;0.70;;;14.90;99.90;;;;;;5039695;28;20459;-83
2021/05/17 10:43:20;;;;;;;2.20;1.13;;;14.40;99.90;;;;;;5038773;28;21011;-82
2021/05/17 10:48:33;;;;;;;0.50;0.50;;;14.40;99.90;;;;;;5039270;28;20508;-83
2021/05/17 10:51:16;;;;;;;0.60;0.60;;;14.60;99.90;;;;;;5039409;28;20597;-83
2021/05/17 10:53:49;;;;;;;0.50;0.50;;;14.70;99.90;;;;;;5039575;28;20477;-82
2021/05/17 10:56:18;;;;;;;3.53;0.70;;;14.60;99.90;;;;;;5038971;28;20472;-82
2021/05/17 11:01:54;;;;;;;0.90;0.47;;;14.90;99.90;;;;;;5038827;28;20459;-82
2021/05/17 14:28:49;;;;;;;0.50;0.30;;;17.80;90.00;;;;;;5001508;28;20479;-83
2021/05/17 14:31:30;;;;;;;;;;;;;;;;;;;;;
2021/05/17 14:34:05;;;;;;;0.73;0.73;;;15.70;96.50;;;;;;5083523;28;20498;-81
2021/05/17 14:36:35;;;;;;;0.50;0.40;;;14.90;98.70;;;;;;5089463;28;20505;-81
2021/05/17 14:39:05;;;;;;;0.43;0.43;;;14.30;99.90;;;;;;5088726;28;20455;-81
2021/05/17 14:41:37;;;;;;;0.60;0.60;;;13.80;99.90;;;;;;5088608;28;20473;-81
2021/05/17 14:44:14;;;;;;;1.80;0.90;;;13.40;99.90;;;;;;5087461;28;20531;-81
2021/05/17 14:46:54;;;;;;;0.60;0.60;;;13.40;99.90;;;;;;5086507;28;20449;-81
2021/05/17 14:49:44;;;;;;;0.50;0.50;;;13.80;99.90;;;;;;5086786;28;20489;-81
2021/05/17 14:52:32;;;;;;;;;;;;;;;;;;;;;
2021/05/17 14:55:35;;;;;;;5.20;1.10;;;14.60;99.90;;;;;;5086833;28;20483;-82
2021/05/17 14:58:23;;;;;;;0.80;0.80;;;15.30;99.90;;;;;;5032969;28;20552;-81
2021/05/17 15:29:10;;;;;;;;;;;;;;;;;;;;;
2021/05/17 17:47:18;;;;;;;0.93;0.50;;;15.50;91.80;;;;;;5001503;28;21017;-79
2021/05/17 17:49:46;;;;;;;0.67;0.40;;;15.50;91.50;;;;;;5074962;28;20538;-82
2021/05/17 17:52:14;;;;;;;0.30;0.30;;;15.20;91.90;;;;;;5090578;28;20522;-81
2021/05/17 17:54:40;;;;;;;0.63;0.60;;;15.40;92.20;;;;;;5090487;28;20468;-80
2021/05/17 17:57:06;;;;;;;1.07;0.63;;;15.70;91.40;;;;;;5091801;28;20449;-82
2021/05/17 17:59:35;;;;;;;0.40;0.40;;;15.80;91.00;;;;;;5093920;28;20484;-81
2021/05/17 18:02:01;;;;;;;0.50;0.50;;;15.70;90.90;;;;;;5096522;28;20447;-80
2021/05/17 18:04:29;;;;;;;0.80;0.50;;;15.80;91.10;;;;;;5096398;28;20464;-79
2021/05/17 18:06:55;;;;;;;1.37;0.70;;;15.70;91.20;;;;;;5096144;28;20433;-78
2021/05/17 18:09:23;;;;;;;0.70;0.60;;;15.60;91.60;;;;;;5095549;28;20446;-81
2021/05/17 18:11:53;;;;;;;1.03;0.50;;;15.40;91.80;;;;;;5096639;28;20431;-79
2021/05/17 18:14:19;;;;;;;0.53;0.50;;;15.30;92.00;;;;;;5098422;28;20456;-78
2021/05/17 18:16:45;;;;;;;3.00;1.10;;;14.90;92.50;;;;;;5098671;28;20546;-78
2021/05/17 18:19:12;;;;;;;0.80;0.80;;;14.60;93.40;;;;;;5136583;28;20472;-79
2021/05/17 18:21:39;;;;;;;1.00;0.70;;;14.40;94.40;;;;;;5137830;28;20494;-77
2021/05/17 18:24:08;;;;;;;0.40;0.40;;;14.10;95.20;;;;;;5137250;28;20453;-76
2021/05/17 18:26:35;;;;;;;0.50;0.50;;;13.90;95.70;;;;;;5137426;27;20437;-79
2021/05/17 18:29:01;;;;;;;0.50;0.50;;;13.60;95.90;;;;;;5136171;27;20456;-79
2021/05/17 18:31:32;;;;;;;0.50;0.50;;;13.30;96.80;;;;;;5135460;27;20444;-78
2021/05/17 18:33:58;;;;;;;1.17;0.50;;;13.10;97.10;;;;;;5136584;28;20473;-78
2021/05/17 18:36:24;;;;;;;0.73;0.73;;;12.80;97.80;;;;;;5135959;28;20442;-79
2021/05/17 18:38:54;;;;;;;0.40;0.40;;;12.70;98.80;;;;;;5136070;27;20483;-79
2021/05/17 18:41:21;;;;;;;0.73;0.67;;;12.50;99.60;;;;;;5134878;28;20452;-77
2021/05/17 18:44:01;;;;;;;0.60;0.60;;;12.40;99.90;;;;;;5136165;28;20469;-79
2021/05/17 18:46:28;;;;;;;1.33;0.67;;;12.40;99.90;;;;;;5134574;28;20448;-78
2021/05/17 18:48:59;;;;;;;0.50;0.40;;;12.30;99.90;;;;;;5134113;28;20458;-78
2021/05/17 18:51:27;;;;;;;0.70;0.70;;;12.20;99.90;;;;;;5135852;28;20441;-79
2021/05/17 18:53:58;;;;;;;0.90;0.87;;;12.20;99.90;;;;;;5136043;28;20453;-79
2021/05/17 18:56:25;;;;;;;0.50;0.43;;;12.10;99.90;;;;;;5135612;28;20448;-78
2021/05/17 18:58:52;;;;;;;0.60;0.60;;;11.90;99.90;;;;;;5125212;28;20482;-77
2021/05/17 19:01:18;;;;;;;0.60;0.60;;;11.90;99.90;;;;;;5125802;28;20448;-79
2021/05/17 19:03:45;;;;;;;1.33;0.50;;;11.90;99.90;;;;;;5130318;28;20468;-78
2021/05/17 19:06:11;;;;;;;1.10;0.93;;;11.70;99.90;;;;;;5122781;28;20531;-79
2021/05/17 19:08:39;;;;;;;0.50;0.50;;;11.70;99.90;;;;;;5121929;28;20456;-78
2021/05/17 19:11:06;;;;;;;0.60;0.60;;;11.60;99.90;;;;;;5124307;28;20514;-78
2021/05/17 19:13:36;;;;;;;0.87;0.83;;;11.50;99.90;;;;;;5122954;28;20487;-79
2021/05/17 19:16:03;;;;;;;0.43;0.43;;;11.50;99.90;;;;;;5120859;28;20452;-78
2021/05/17 19:18:30;;;;;;;0.57;0.57;;;11.50;99.90;;;;;;5122159;28;20465;-80
2021/05/17 19:20:56;;;;;;;0.57;0.57;;;11.50;99.90;;;;;;5124237;28;20538;-79
2021/05/17 19:23:22;;;;;;;1.43;0.90;;;11.40;99.90;;;;;;5121700;28;20485;-79
2021/05/17 19:25:51;;;;;;;1.00;0.83;;;11.40;99.90;;;;;;5121684;28;20484;-78
2021/05/17 19:28:19;;;;;;;1.27;0.88;;;11.30;99.90;;;;;;5120481;28;20451;-78
2021/05/17 19:30:46;;;;;;;1.00;0.90;;;11.30;99.90;;;;;;5120875;28;20215;-80
2021/05/17 19:33:12;;;;;;;1.07;0.90;;;11.30;99.90;;;;;;5121541;28;20446;-78
2021/05/17 19:35:39;;;;;;;1.20;0.90;;;11.30;99.90;;;;;;5121818;28;20440;-78
2021/05/17 19:38:07;;;;;;;1.10;0.90;;;11.30;99.90;;;;;;5122267;28;20436;-77
2021/05/17 19:40:34;;;;;;;0.73;0.73;;;11.30;99.90;;;;;;5125672;28;20452;-78
2021/05/17 19:43:01;;;;;;;0.73;0.73;;;11.20;99.90;;;;;;5131191;28;20473;-78
2021/05/17 19:45:29;;;;;;;0.87;0.87;;;11.10;99.90;;;;;;5126895;28;20427;-79
2021/05/17 19:47:55;;;;;;;0.70;0.70;;;11.10;99.90;;;;;;5125748;28;20434;-78
2021/05/17 19:50:21;;;;;;;1.40;1.30;;;11.20;99.90;;;;;;5126421;28;20488;-78
2021/05/17 19:52:48;;;;;;;2.33;0.88;;;11.10;99.90;;;;;;5124674;28;20979;-79
2021/05/17 19:55:17;;;;;;;1.77;1.07;;;11.10;99.90;;;;;;5124296;28;20286;-79
2021/05/17 19:57:44;;;;;;;1.63;1.17;;;11.10;99.90;;;;;;5124759;28;20453;-79
2021/05/17 20:00:12;;;;;;;1.00;1.00;;;11.10;99.90;;;;;;5123983;28;20487;-79
2021/05/17 20:02:39;;;;;;;1.70;1.13;;;11.10;99.90;;;;;;5123826;28;20431;-79
2021/05/17 20:05:07;;;;;;;2.27;1.40;;;11.10;99.90;;;;;;5123746;28;20502;-78
2021/05/17 20:07:34;;;;;;;1.60;0.90;;;11.10;99.90;;;;;;5123513;28;20452;-79
2021/05/17 20:10:01;;;;;;;1.17;1.00;;;11.10;99.90;;;;;;5121577;28;20850;-79
2021/05/17 20:12:27;;;;;;;1.93;0.90;;;11.10;99.90;;;;;;5121326;28;20528;-79
2021/05/17 20:14:53;;;;;;;1.03;0.93;;;11.20;99.90;;;;;;5121414;28;20472;-79
2021/05/17 20:17:19;;;;;;;2.50;1.43;;;11.10;99.90;;;;;;5122152;28;20455;-79
2021/05/17 20:19:47;;;;;;;0.90;0.90;;;11.20;99.90;;;;;;5121628;28;20479;-78
2021/05/17 20:22:13;;;;;;;2.50;1.20;;;11.30;99.90;;;;;;5128692;28;20460;-81
2021/05/17 20:24:39;;;;;;;1.53;1.40;;;11.30;99.90;;;;;;5131280;28;20477;-81
2021/05/17 20:27:07;;;;;;;1.20;1.10;;;11.20;99.90;;;;;;5130273;28;20487;-80
2021/05/17 20:29:33;;;;;;;1.77;1.30;;;11.10;99.90;;;;;;5131830;28;21179;-80
2021/05/17 20:32:00;;;;;;;2.13;1.97;;;11.00;99.90;;;;;;5135869;28;20453;-82
2021/05/17 20:37:13;;;;;;;1.90;1.00;;;10.80;99.90;;;;;;5137934;28;20450;-81
2021/05/17 20:39:42;;;;;;;1.50;1.40;;;10.80;99.90;;;;;;5138289;28;20507;-83
2021/05/17 20:42:10;;;;;;;1.20;1.10;;;10.70;99.90;;;;;;5140278;27;20237;-84
2021/05/17 20:44:38;;;;;;;1.30;1.20;;;10.70;99.90;;;;;;5138872;28;20209;-81
2021/05/17 20:47:05;;;;;;;1.37;1.27;;;10.70;99.90;;;;;;5138097;28;20941;-81
2021/05/17 20:49:32;;;;;;;1.87;1.30;;;10.60;99.90;;;;;;5137832;28;20450;-83
2021/05/17 20:51:59;;;;;;;4.38;1.58;;;10.60;99.90;;;;;;5137175;28;20453;-80
2021/05/17 20:54:27;;;;;;;1.13;1.10;;;10.60;99.90;;;;;;5136965;28;20241;-82
2021/05/17 20:56:53;;;;;;;1.83;1.07;;;10.70;99.90;;;;;;5134743;28;20454;-80
2021/05/17 20:59:20;;;;;;;2.70;1.13;;;10.70;99.90;;;;;;5129472;28;20482;-81
2021/05/17 21:01:46;;;;;;;1.10;1.10;;;10.60;99.90;;;;;;5131656;28;20216;-79
2021/05/17 21:04:12;;;;;;;1.03;0.93;;;10.50;99.90;;;;;;5130133;28;20217;-80
2021/05/17 21:06:39;;;;;;;1.90;1.80;;;10.50;99.90;;;;;;5128891;28;20449;-79
2021/05/17 21:09:07;;;;;;;2.10;1.20;;;10.50;99.90;;;;;;5129904;28;20231;-80
2021/05/17 21:11:34;;;;;;;1.30;1.20;;;10.50;99.90;;;;;;5132640;28;20459;-79
2021/05/17 21:14:01;;;;;;;1.60;1.23;;;10.60;99.90;;;;;;5130162;28;20468;-81
2021/05/17 21:16:27;;;;;;;1.42;1.30;;;10.50;99.90;;;;;;5131311;28;20508;-80
2021/05/17 21:18:54;;;;;;;1.43;1.30;;;10.50;99.90;;;;;;5131244;28;20229;-80
2021/05/17 21:21:20;;;;;;;1.13;1.10;;;10.50;99.90;;;;;;5133539;28;20451;-81
2021/05/17 21:23:47;;;;;;;1.40;1.30;;;10.50;99.90;;;;;;5136267;28;20451;-81
2021/05/17 21:26:13;;;;;;;1.17;1.10;;;10.50;99.90;;;;;;5134536;28;20209;-82
2021/05/17 21:28:42;;;;;;;1.40;1.30;;;10.50;99.90;;;;;;5136339;28;20206;-81
2021/05/17 21:31:09;;;;;;;3.03;1.40;;;10.50;99.90;;;;;;5135427;28;20807;-81
2021/05/17 21:33:35;;;;;;;1.27;1.17;;;10.40;99.90;;;;;;5135402;28;20459;-81
2021/05/17 21:36:02;;;;;;;1.23;1.02;;;10.50;99.90;;;;;;5135991;28;20212;-83
2021/05/17 21:38:32;;;;;;;1.45;1.30;;;10.50;99.90;;;;;;5133640;28;20304;-83
2021/05/17 21:40:58;;;;;;;1.90;1.37;;;10.40;99.90;;;;;;5135275;28;20197;-82
2021/05/17 21:43:25;;;;;;;1.75;1.30;;;10.40;99.90;;;;;;5134054;28;20457;-79
2021/05/17 21:45:52;;;;;;;1.50;1.40;;;10.40;99.90;;;;;;5133336;28;20199;-81
2021/05/17 21:48:18;;;;;;;1.65;1.55;;;10.50;99.90;;;;;;5137252;28;20999;-83
2021/05/17 21:50:44;;;;;;;1.27;0.80;;;10.40;99.90;;;;;;5137907;28;20225;-82
2021/05/17 21:53:10;;;;;;;1.13;1.00;;;10.40;99.90;;;;;;5137722;28;20190;-84
2021/05/17 21:55:37;;;;;;;0.95;0.85;;;10.30;99.90;;;;;;5135691;28;20217;-82
2021/05/17 21:58:03;;;;;;;2.53;0.80;;;10.40;99.90;;;;;;5135508;28;20285;-82
2021/05/17 22:00:35;;;;;;;1.00;0.80;;;10.30;99.90;;;;;;5133845;28;20206;-83
2021/05/17 22:03:04;;;;;;;1.15;0.90;;;10.30;99.90;;;;;;5124852;28;20194;-82
2021/05/17 22:05:34;;;;;;;2.10;0.90;;;10.20;99.90;;;;;;5124522;28;20208;-82
2021/05/17 22:10:46;;;;;;;2.50;1.25;;;10.10;99.90;;;;;;5122882;28;20197;-84
2021/05/17 22:13:13;;;;;;;0.50;0.50;;;10.10;99.90;;;;;;5122991;28;20267;-84
2021/05/17 22:15:49;;;;;;;0.80;0.80;;;10.10;99.90;;;;;;5122244;28;20205;-84
2021/05/17 22:18:17;;;;;;;0.70;0.70;;;10.00;99.90;;;;;;5121924;28;20198;-84